sensor_id;sensor_type;location;lat;lon;timestamp;P1;durP1;ratioP1;P2;durP2;ratioP2
76574;SDS011;65439;50.948;6.988;2023-08-17T00:01:20;10.40;;;8.07;;
76574;SDS011;65439;50.948;6.988;2023-08-17T00:03:45;13.37;;;7.60;;
76574;SDS011;65439;50.948;6.988;2023-08-17T00:06:11;11.83;;;8.33;;
76574;SDS011;65439;50.948;6.988;2023-08-17T00:08:36;11.67;;;8.37;;
76574;SDS011;65439;50.948;6.988;2023-08-17T00:11:01;11.73;;;8.55;;
76574;SDS011;65439;50.948;6.988;2023-08-17T00:13:27;8.18;;;7.32;;
76574;SDS011;65439;50.948;6.988;2023-08-17T00:15:52;10.57;;;7.70;;
76574;SDS011;65439;50.948;6.988;2023-08-17T00:18:17;10.90;;;7.97;;
76574;SDS011;65439;50.948;6.988;2023-08-17T00:20:42;11.07;;;7.57;;
76574;SDS011;65439;50.948;6.988;2023-08-17T00:23:09;10.35;;;7.00;;
76574;SDS011;65439;50.948;6.988;2023-08-17T00:25:35;10.02;;;6.70;;
76574;SDS011;65439;50.948;6.988;2023-08-17T00:28:00;8.67;;;7.00;;
76574;SDS011;65439;50.948;6.988;2023-08-17T00:30:26;9.40;;;7.03;;
76574;SDS011;65439;50.948;6.988;2023-08-17T00:32:51;12.43;;;7.38;;
76574;SDS011;65439;50.948;6.988;2023-08-17T00:35:17;9.82;;;6.68;;
76574;SDS011;65439;50.948;6.988;2023-08-17T00:37:42;11.43;;;7.47;;
76574;SDS011;65439;50.948;6.988;2023-08-17T00:40:07;11.57;;;8.03;;
76574;SDS011;65439;50.948;6.988;2023-08-17T00:42:33;10.60;;;8.30;;
76574;SDS011;65439;50.948;6.988;2023-08-17T00:44:58;9.55;;;8.38;;
76574;SDS011;65439;50.948;6.988;2023-08-17T00:47:24;10.90;;;7.93;;
76574;SDS011;65439;50.948;6.988;2023-08-17T00:49:49;12.73;;;8.25;;
76574;SDS011;65439;50.948;6.988;2023-08-17T00:52:15;9.90;;;8.38;;
76574;SDS011;65439;50.948;6.988;2023-08-17T00:54:40;12.27;;;8.33;;
76574;SDS011;65439;50.948;6.988;2023-08-17T00:57:05;10.40;;;8.25;;
76574;SDS011;65439;50.948;6.988;2023-08-17T00:59:31;11.38;;;7.68;;
76574;SDS011;65439;50.948;6.988;2023-08-17T01:01:57;12.32;;;8.43;;
76574;SDS011;65439;50.948;6.988;2023-08-17T01:04:22;11.37;;;8.40;;
76574;SDS011;65439;50.948;6.988;2023-08-17T01:06:47;10.30;;;7.47;;
76574;SDS011;65439;50.948;6.988;2023-08-17T01:09:13;12.07;;;8.93;;
76574;SDS011;65439;50.948;6.988;2023-08-17T01:11:41;11.80;;;7.57;;
76574;SDS011;65439;50.948;6.988;2023-08-17T01:14:33;9.07;;;8.07;;
76574;SDS011;65439;50.948;6.988;2023-08-17T01:17:12;9.77;;;8.02;;
76574;SDS011;65439;50.948;6.988;2023-08-17T01:19:54;10.38;;;8.23;;
76574;SDS011;65439;50.948;6.988;2023-08-17T01:24:47;8.95;;;7.43;;
76574;SDS011;65439;50.948;6.988;2023-08-17T01:27:12;8.40;;;7.07;;
76574;SDS011;65439;50.948;6.988;2023-08-17T01:29:37;9.97;;;8.90;;
76574;SDS011;65439;50.948;6.988;2023-08-17T01:34:44;9.05;;;7.75;;
76574;SDS011;65439;50.948;6.988;2023-08-17T01:37:13;11.50;;;9.32;;
76574;SDS011;65439;50.948;6.988;2023-08-17T01:39:39;10.77;;;7.82;;
76574;SDS011;65439;50.948;6.988;2023-08-17T01:42:09;8.80;;;7.53;;
76574;SDS011;65439;50.948;6.988;2023-08-17T01:44:35;9.32;;;8.20;;
76574;SDS011;65439;50.948;6.988;2023-08-17T01:47:01;8.15;;;7.00;;
76574;SDS011;65439;50.948;6.988;2023-08-17T01:49:26;12.23;;;7.30;;
76574;SDS011;65439;50.948;6.988;2023-08-17T01:51:51;12.97;;;7.13;;
76574;SDS011;65439;50.948;6.988;2023-08-17T01:54:17;8.48;;;6.75;;
76574;SDS011;65439;50.948;6.988;2023-08-17T01:56:42;11.70;;;7.10;;
76574;SDS011;65439;50.948;6.988;2023-08-17T01:59:07;9.83;;;6.57;;
76574;SDS011;65439;50.948;6.988;2023-08-17T02:01:33;8.70;;;6.57;;
76574;SDS011;65439;50.948;6.988;2023-08-17T02:03:58;12.23;;;7.63;;
76574;SDS011;65439;50.948;6.988;2023-08-17T02:06:27;8.88;;;7.22;;
76574;SDS011;65439;50.948;6.988;2023-08-17T02:08:52;8.47;;;6.63;;
76574;SDS011;65439;50.948;6.988;2023-08-17T02:11:17;7.50;;;6.70;;
76574;SDS011;65439;50.948;6.988;2023-08-17T02:13:42;8.30;;;6.67;;
76574;SDS011;65439;50.948;6.988;2023-08-17T02:16:08;8.63;;;7.20;;
76574;SDS011;65439;50.948;6.988;2023-08-17T02:18:33;10.68;;;6.47;;
76574;SDS011;65439;50.948;6.988;2023-08-17T02:23:25;9.63;;;7.03;;
76574;SDS011;65439;50.948;6.988;2023-08-17T02:25:50;9.13;;;7.13;;
76574;SDS011;65439;50.948;6.988;2023-08-17T02:28:15;8.57;;;5.70;;
76574;SDS011;65439;50.948;6.988;2023-08-17T02:30:41;10.13;;;6.60;;
76574;SDS011;65439;50.948;6.988;2023-08-17T02:33:06;11.32;;;7.43;;
76574;SDS011;65439;50.948;6.988;2023-08-17T02:35:31;11.83;;;6.40;;
76574;SDS011;65439;50.948;6.988;2023-08-17T02:37:57;11.07;;;6.63;;
76574;SDS011;65439;50.948;6.988;2023-08-17T02:40:22;6.50;;;5.90;;
76574;SDS011;65439;50.948;6.988;2023-08-17T02:42:47;7.93;;;5.80;;
76574;SDS011;65439;50.948;6.988;2023-08-17T02:45:12;6.77;;;5.80;;
76574;SDS011;65439;50.948;6.988;2023-08-17T02:47:38;8.65;;;6.40;;
76574;SDS011;65439;50.948;6.988;2023-08-17T02:50:03;7.37;;;5.77;;
76574;SDS011;65439;50.948;6.988;2023-08-17T02:52:29;8.40;;;6.18;;
76574;SDS011;65439;50.948;6.988;2023-08-17T02:54:54;7.37;;;6.67;;
76574;SDS011;65439;50.948;6.988;2023-08-17T02:57:20;6.20;;;5.40;;
76574;SDS011;65439;50.948;6.988;2023-08-17T02:59:45;6.55;;;5.72;;
76574;SDS011;65439;50.948;6.988;2023-08-17T03:02:10;8.13;;;5.80;;
76574;SDS011;65439;50.948;6.988;2023-08-17T03:04:36;7.97;;;7.17;;
76574;SDS011;65439;50.948;6.988;2023-08-17T03:07:01;9.40;;;6.97;;
76574;SDS011;65439;50.948;6.988;2023-08-17T03:09:26;6.85;;;5.50;;
76574;SDS011;65439;50.948;6.988;2023-08-17T03:11:52;7.30;;;6.60;;
76574;SDS011;65439;50.948;6.988;2023-08-17T03:14:17;7.95;;;7.15;;
76574;SDS011;65439;50.948;6.988;2023-08-17T03:16:43;12.63;;;6.57;;
76574;SDS011;65439;50.948;6.988;2023-08-17T03:19:08;7.97;;;7.17;;
76574;SDS011;65439;50.948;6.988;2023-08-17T03:21:35;9.00;;;6.47;;
76574;SDS011;65439;50.948;6.988;2023-08-17T03:24:01;10.38;;;6.90;;
76574;SDS011;65439;50.948;6.988;2023-08-17T03:26:26;9.20;;;7.38;;
76574;SDS011;65439;50.948;6.988;2023-08-17T03:28:52;9.55;;;6.10;;
76574;SDS011;65439;50.948;6.988;2023-08-17T03:31:17;7.53;;;6.37;;
76574;SDS011;65439;50.948;6.988;2023-08-17T03:33:42;8.93;;;7.07;;
76574;SDS011;65439;50.948;6.988;2023-08-17T03:36:08;9.83;;;6.30;;
76574;SDS011;65439;50.948;6.988;2023-08-17T03:38:33;9.00;;;7.40;;
76574;SDS011;65439;50.948;6.988;2023-08-17T03:40:58;8.00;;;6.73;;
76574;SDS011;65439;50.948;6.988;2023-08-17T03:43:23;8.33;;;7.00;;
76574;SDS011;65439;50.948;6.988;2023-08-17T03:45:50;7.63;;;6.93;;
76574;SDS011;65439;50.948;6.988;2023-08-17T03:48:15;8.73;;;7.23;;
76574;SDS011;65439;50.948;6.988;2023-08-17T03:50:41;9.40;;;7.37;;
76574;SDS011;65439;50.948;6.988;2023-08-17T03:53:06;7.87;;;6.33;;
76574;SDS011;65439;50.948;6.988;2023-08-17T03:55:31;6.47;;;5.87;;
76574;SDS011;65439;50.948;6.988;2023-08-17T03:57:56;9.37;;;7.73;;
76574;SDS011;65439;50.948;6.988;2023-08-17T04:00:22;9.50;;;6.90;;
76574;SDS011;65439;50.948;6.988;2023-08-17T04:02:47;10.23;;;6.77;;
76574;SDS011;65439;50.948;6.988;2023-08-17T04:05:12;9.87;;;6.57;;
76574;SDS011;65439;50.948;6.988;2023-08-17T04:07:38;10.82;;;7.68;;
76574;SDS011;65439;50.948;6.988;2023-08-17T04:10:06;10.82;;;6.85;;
76574;SDS011;65439;50.948;6.988;2023-08-17T04:12:32;7.10;;;6.40;;
76574;SDS011;65439;50.948;6.988;2023-08-17T04:14:57;10.87;;;6.87;;
76574;SDS011;65439;50.948;6.988;2023-08-17T04:17:23;9.70;;;8.53;;
76574;SDS011;65439;50.948;6.988;2023-08-17T04:19:48;8.40;;;7.40;;
76574;SDS011;65439;50.948;6.988;2023-08-17T04:22:13;8.53;;;7.03;;
76574;SDS011;65439;50.948;6.988;2023-08-17T04:24:38;8.40;;;6.63;;
76574;SDS011;65439;50.948;6.988;2023-08-17T04:27:04;8.75;;;7.78;;
76574;SDS011;65439;50.948;6.988;2023-08-17T04:29:30;9.25;;;8.05;;
76574;SDS011;65439;50.948;6.988;2023-08-17T04:31:56;8.95;;;7.63;;
76574;SDS011;65439;50.948;6.988;2023-08-17T04:34:21;8.57;;;7.70;;
76574;SDS011;65439;50.948;6.988;2023-08-17T04:36:47;8.90;;;8.03;;
76574;SDS011;65439;50.948;6.988;2023-08-17T04:39:12;9.77;;;8.80;;
76574;SDS011;65439;50.948;6.988;2023-08-17T04:41:37;9.38;;;7.72;;
76574;SDS011;65439;50.948;6.988;2023-08-17T04:44:03;11.00;;;8.90;;
76574;SDS011;65439;50.948;6.988;2023-08-17T04:46:29;12.30;;;8.68;;
76574;SDS011;65439;50.948;6.988;2023-08-17T04:48:54;11.20;;;9.77;;
76574;SDS011;65439;50.948;6.988;2023-08-17T04:51:20;12.02;;;8.80;;
76574;SDS011;65439;50.948;6.988;2023-08-17T04:53:45;10.13;;;8.70;;
76574;SDS011;65439;50.948;6.988;2023-08-17T04:56:11;10.63;;;9.53;;
76574;SDS011;65439;50.948;6.988;2023-08-17T04:58:36;13.80;;;9.77;;
76574;SDS011;65439;50.948;6.988;2023-08-17T05:01:05;11.85;;;9.52;;
76574;SDS011;65439;50.948;6.988;2023-08-17T05:03:30;13.87;;;9.90;;
76574;SDS011;65439;50.948;6.988;2023-08-17T05:05:56;11.45;;;9.13;;
76574;SDS011;65439;50.948;6.988;2023-08-17T05:08:21;10.37;;;9.27;;
76574;SDS011;65439;50.948;6.988;2023-08-17T05:10:47;11.10;;;8.90;;
76574;SDS011;65439;50.948;6.988;2023-08-17T05:13:12;10.82;;;7.93;;
76574;SDS011;65439;50.948;6.988;2023-08-17T05:15:38;10.73;;;9.50;;
76574;SDS011;65439;50.948;6.988;2023-08-17T05:18:03;12.97;;;9.30;;
76574;SDS011;65439;50.948;6.988;2023-08-17T05:20:29;7.95;;;7.15;;
76574;SDS011;65439;50.948;6.988;2023-08-17T05:22:54;10.13;;;8.20;;
76574;SDS011;65439;50.948;6.988;2023-08-17T05:25:20;10.97;;;8.87;;
76574;SDS011;65439;50.948;6.988;2023-08-17T05:27:45;9.47;;;7.90;;
76574;SDS011;65439;50.948;6.988;2023-08-17T05:30:10;11.93;;;7.17;;
76574;SDS011;65439;50.948;6.988;2023-08-17T05:32:36;8.30;;;7.47;;
76574;SDS011;65439;50.948;6.988;2023-08-17T05:35:01;10.00;;;6.90;;
76574;SDS011;65439;50.948;6.988;2023-08-17T05:37:26;10.07;;;8.18;;
76574;SDS011;65439;50.948;6.988;2023-08-17T05:39:52;9.15;;;8.25;;
76574;SDS011;65439;50.948;6.988;2023-08-17T05:42:17;15.63;;;8.73;;
76574;SDS011;65439;50.948;6.988;2023-08-17T05:44:42;13.63;;;7.73;;
76574;SDS011;65439;50.948;6.988;2023-08-17T05:47:08;9.83;;;8.80;;
76574;SDS011;65439;50.948;6.988;2023-08-17T05:49:33;12.70;;;8.80;;
76574;SDS011;65439;50.948;6.988;2023-08-17T05:51:58;9.45;;;7.32;;
76574;SDS011;65439;50.948;6.988;2023-08-17T05:54:23;10.53;;;7.63;;
76574;SDS011;65439;50.948;6.988;2023-08-17T05:56:49;9.87;;;8.37;;
76574;SDS011;65439;50.948;6.988;2023-08-17T05:59:14;12.57;;;8.30;;
76574;SDS011;65439;50.948;6.988;2023-08-17T06:01:39;10.63;;;8.60;;
76574;SDS011;65439;50.948;6.988;2023-08-17T06:04:05;11.88;;;8.88;;
76574;SDS011;65439;50.948;6.988;2023-08-17T06:06:31;9.15;;;8.20;;
76574;SDS011;65439;50.948;6.988;2023-08-17T06:08:56;10.73;;;8.18;;
76574;SDS011;65439;50.948;6.988;2023-08-17T06:11:21;9.13;;;7.73;;
76574;SDS011;65439;50.948;6.988;2023-08-17T06:13:48;10.25;;;7.93;;
76574;SDS011;65439;50.948;6.988;2023-08-17T06:16:13;11.15;;;9.05;;
76574;SDS011;65439;50.948;6.988;2023-08-17T06:18:38;9.93;;;8.00;;
76574;SDS011;65439;50.948;6.988;2023-08-17T06:21:04;11.23;;;9.63;;
76574;SDS011;65439;50.948;6.988;2023-08-17T06:23:29;11.10;;;9.35;;
76574;SDS011;65439;50.948;6.988;2023-08-17T06:25:58;11.50;;;9.10;;
76574;SDS011;65439;50.948;6.988;2023-08-17T06:28:24;12.98;;;9.50;;
76574;SDS011;65439;50.948;6.988;2023-08-17T06:30:53;10.93;;;9.15;;
76574;SDS011;65439;50.948;6.988;2023-08-17T06:33:21;9.82;;;8.20;;
76574;SDS011;65439;50.948;6.988;2023-08-17T06:35:48;11.30;;;9.80;;
76574;SDS011;65439;50.948;6.988;2023-08-17T06:38:14;13.27;;;9.20;;
76574;SDS011;65439;50.948;6.988;2023-08-17T06:40:39;10.50;;;8.15;;
76574;SDS011;65439;50.948;6.988;2023-08-17T06:43:04;11.80;;;9.20;;
76574;SDS011;65439;50.948;6.988;2023-08-17T06:45:33;12.33;;;9.80;;
76574;SDS011;65439;50.948;6.988;2023-08-17T06:47:58;10.95;;;8.65;;
76574;SDS011;65439;50.948;6.988;2023-08-17T06:50:24;12.30;;;9.27;;
76574;SDS011;65439;50.948;6.988;2023-08-17T06:52:49;12.02;;;8.05;;
76574;SDS011;65439;50.948;6.988;2023-08-17T06:55:15;10.93;;;8.40;;
76574;SDS011;65439;50.948;6.988;2023-08-17T06:57:41;12.43;;;8.82;;
76574;SDS011;65439;50.948;6.988;2023-08-17T07:00:07;9.90;;;8.60;;
76574;SDS011;65439;50.948;6.988;2023-08-17T07:02:33;12.48;;;9.30;;
76574;SDS011;65439;50.948;6.988;2023-08-17T07:04:59;11.73;;;8.52;;
76574;SDS011;65439;50.948;6.988;2023-08-17T07:07:24;12.68;;;9.52;;
76574;SDS011;65439;50.948;6.988;2023-08-17T07:09:50;10.40;;;9.37;;
76574;SDS011;65439;50.948;6.988;2023-08-17T07:12:15;14.23;;;9.30;;
76574;SDS011;65439;50.948;6.988;2023-08-17T07:14:40;11.43;;;10.13;;
76574;SDS011;65439;50.948;6.988;2023-08-17T07:17:06;10.20;;;8.35;;
76574;SDS011;65439;50.948;6.988;2023-08-17T07:19:31;10.73;;;9.63;;
76574;SDS011;65439;50.948;6.988;2023-08-17T07:21:57;11.05;;;8.35;;
76574;SDS011;65439;50.948;6.988;2023-08-17T07:24:22;11.87;;;9.90;;
76574;SDS011;65439;50.948;6.988;2023-08-17T07:26:47;10.30;;;8.40;;
76574;SDS011;65439;50.948;6.988;2023-08-17T07:29:12;11.87;;;8.90;;
76574;SDS011;65439;50.948;6.988;2023-08-17T07:31:38;9.80;;;8.80;;
76574;SDS011;65439;50.948;6.988;2023-08-17T07:34:04;15.13;;;8.45;;
76574;SDS011;65439;50.948;6.988;2023-08-17T07:36:30;12.00;;;8.75;;
76574;SDS011;65439;50.948;6.988;2023-08-17T07:38:56;13.52;;;8.23;;
76574;SDS011;65439;50.948;6.988;2023-08-17T07:41:22;11.37;;;9.90;;
76574;SDS011;65439;50.948;6.988;2023-08-17T07:43:47;9.30;;;8.30;;
76574;SDS011;65439;50.948;6.988;2023-08-17T07:46:13;11.15;;;8.75;;
76574;SDS011;65439;50.948;6.988;2023-08-17T07:48:38;10.52;;;9.15;;
76574;SDS011;65439;50.948;6.988;2023-08-17T07:51:03;11.13;;;8.50;;
76574;SDS011;65439;50.948;6.988;2023-08-17T07:53:29;10.35;;;8.57;;
76574;SDS011;65439;50.948;6.988;2023-08-17T07:55:54;11.52;;;9.45;;
76574;SDS011;65439;50.948;6.988;2023-08-17T07:58:19;13.13;;;8.63;;
76574;SDS011;65439;50.948;6.988;2023-08-17T08:00:45;10.80;;;9.10;;
76574;SDS011;65439;50.948;6.988;2023-08-17T08:03:10;12.37;;;10.50;;
76574;SDS011;65439;50.948;6.988;2023-08-17T08:05:35;15.77;;;10.70;;
76574;SDS011;65439;50.948;6.988;2023-08-17T08:08:01;12.18;;;8.65;;
76574;SDS011;65439;50.948;6.988;2023-08-17T08:10:26;10.37;;;8.47;;
76574;SDS011;65439;50.948;6.988;2023-08-17T08:12:52;13.25;;;8.88;;
76574;SDS011;65439;50.948;6.988;2023-08-17T08:15:18;11.83;;;9.33;;
76574;SDS011;65439;50.948;6.988;2023-08-17T08:17:43;13.87;;;10.07;;
76574;SDS011;65439;50.948;6.988;2023-08-17T08:20:09;14.82;;;11.10;;
76574;SDS011;65439;50.948;6.988;2023-08-17T08:22:34;14.23;;;8.82;;
76574;SDS011;65439;50.948;6.988;2023-08-17T08:25:00;16.30;;;10.70;;
76574;SDS011;65439;50.948;6.988;2023-08-17T08:27:25;15.07;;;10.55;;
76574;SDS011;65439;50.948;6.988;2023-08-17T08:29:51;13.30;;;10.32;;
76574;SDS011;65439;50.948;6.988;2023-08-17T08:32:16;15.17;;;9.27;;
76574;SDS011;65439;50.948;6.988;2023-08-17T08:34:41;14.60;;;10.70;;
76574;SDS011;65439;50.948;6.988;2023-08-17T08:37:07;18.87;;;11.13;;
76574;SDS011;65439;50.948;6.988;2023-08-17T08:39:32;15.55;;;10.35;;
76574;SDS011;65439;50.948;6.988;2023-08-17T08:41:58;15.75;;;11.27;;
76574;SDS011;65439;50.948;6.988;2023-08-17T08:44:23;14.52;;;10.68;;
76574;SDS011;65439;50.948;6.988;2023-08-17T08:46:49;14.32;;;11.07;;
76574;SDS011;65439;50.948;6.988;2023-08-17T08:49:19;17.33;;;10.55;;
76574;SDS011;65439;50.948;6.988;2023-08-17T08:51:47;14.48;;;10.15;;
76574;SDS011;65439;50.948;6.988;2023-08-17T08:54:14;17.63;;;12.95;;
76574;SDS011;65439;50.948;6.988;2023-08-17T08:56:43;16.05;;;11.23;;
76574;SDS011;65439;50.948;6.988;2023-08-17T08:59:10;23.58;;;11.27;;
76574;SDS011;65439;50.948;6.988;2023-08-17T09:01:36;16.92;;;11.45;;
76574;SDS011;65439;50.948;6.988;2023-08-17T09:04:01;19.73;;;12.90;;
76574;SDS011;65439;50.948;6.988;2023-08-17T09:06:29;17.27;;;12.40;;
76574;SDS011;65439;50.948;6.988;2023-08-17T09:08:54;16.45;;;11.45;;
76574;SDS011;65439;50.948;6.988;2023-08-17T09:11:20;22.00;;;12.50;;
76574;SDS011;65439;50.948;6.988;2023-08-17T09:13:45;16.60;;;11.17;;
76574;SDS011;65439;50.948;6.988;2023-08-17T09:16:10;19.27;;;11.30;;
76574;SDS011;65439;50.948;6.988;2023-08-17T09:18:36;19.10;;;12.37;;
76574;SDS011;65439;50.948;6.988;2023-08-17T09:21:01;21.83;;;14.20;;
76574;SDS011;65439;50.948;6.988;2023-08-17T09:23:26;15.52;;;11.45;;
76574;SDS011;65439;50.948;6.988;2023-08-17T09:25:52;20.87;;;11.87;;
76574;SDS011;65439;50.948;6.988;2023-08-17T09:28:22;19.10;;;11.10;;
76574;SDS011;65439;50.948;6.988;2023-08-17T09:30:58;18.17;;;12.10;;
76574;SDS011;65439;50.948;6.988;2023-08-17T09:33:32;16.75;;;12.45;;
76574;SDS011;65439;50.948;6.988;2023-08-17T09:36:00;21.65;;;12.88;;
76574;SDS011;65439;50.948;6.988;2023-08-17T09:38:40;15.40;;;9.57;;
76574;SDS011;65439;50.948;6.988;2023-08-17T09:41:06;17.35;;;12.13;;
76574;SDS011;65439;50.948;6.988;2023-08-17T09:43:31;18.40;;;13.43;;
76574;SDS011;65439;50.948;6.988;2023-08-17T09:45:58;20.00;;;13.98;;
76574;SDS011;65439;50.948;6.988;2023-08-17T09:48:24;20.90;;;12.57;;
76574;SDS011;65439;50.948;6.988;2023-08-17T09:50:50;19.55;;;12.70;;
76574;SDS011;65439;50.948;6.988;2023-08-17T09:53:16;22.80;;;13.17;;
76574;SDS011;65439;50.948;6.988;2023-08-17T09:55:43;18.30;;;13.45;;
76574;SDS011;65439;50.948;6.988;2023-08-17T09:58:10;17.27;;;12.23;;
76574;SDS011;65439;50.948;6.988;2023-08-17T10:00:40;21.85;;;15.18;;
76574;SDS011;65439;50.948;6.988;2023-08-17T10:03:09;15.32;;;13.02;;
76574;SDS011;65439;50.948;6.988;2023-08-17T10:05:35;21.23;;;12.90;;
76574;SDS011;65439;50.948;6.988;2023-08-17T10:08:03;18.58;;;12.73;;
76574;SDS011;65439;50.948;6.988;2023-08-17T10:10:29;23.90;;;15.48;;
76574;SDS011;65439;50.948;6.988;2023-08-17T10:12:59;23.17;;;15.57;;
76574;SDS011;65439;50.948;6.988;2023-08-17T10:15:31;21.42;;;14.80;;
76574;SDS011;65439;50.948;6.988;2023-08-17T10:18:02;21.23;;;14.38;;
76574;SDS011;65439;50.948;6.988;2023-08-17T10:20:29;18.60;;;12.98;;
76574;SDS011;65439;50.948;6.988;2023-08-17T10:25:24;18.70;;;14.02;;
76574;SDS011;65439;50.948;6.988;2023-08-17T10:27:52;20.05;;;14.15;;
76574;SDS011;65439;50.948;6.988;2023-08-17T10:30:19;21.88;;;15.57;;
76574;SDS011;65439;50.948;6.988;2023-08-17T10:32:44;22.10;;;13.45;;
76574;SDS011;65439;50.948;6.988;2023-08-17T10:35:11;16.85;;;13.38;;
76574;SDS011;65439;50.948;6.988;2023-08-17T10:37:38;24.73;;;14.60;;
76574;SDS011;65439;50.948;6.988;2023-08-17T10:40:03;20.40;;;14.93;;
76574;SDS011;65439;50.948;6.988;2023-08-17T10:42:33;21.80;;;15.00;;
76574;SDS011;65439;50.948;6.988;2023-08-17T10:45:00;16.83;;;13.18;;
76574;SDS011;65439;50.948;6.988;2023-08-17T10:47:31;16.75;;;13.13;;
76574;SDS011;65439;50.948;6.988;2023-08-17T10:52:30;14.15;;;11.40;;
76574;SDS011;65439;50.948;6.988;2023-08-17T10:55:04;16.75;;;12.82;;
76574;SDS011;65439;50.948;6.988;2023-08-17T11:00:05;17.85;;;12.70;;
76574;SDS011;65439;50.948;6.988;2023-08-17T11:02:38;17.10;;;12.23;;
76574;SDS011;65439;50.948;6.988;2023-08-17T11:05:04;15.27;;;12.60;;
76574;SDS011;65439;50.948;6.988;2023-08-17T11:07:42;18.50;;;12.32;;
76574;SDS011;65439;50.948;6.988;2023-08-17T11:12:37;14.38;;;10.93;;
76574;SDS011;65439;50.948;6.988;2023-08-17T11:15:03;15.60;;;10.63;;
76574;SDS011;65439;50.948;6.988;2023-08-17T11:17:28;11.45;;;10.18;;
76574;SDS011;65439;50.948;6.988;2023-08-17T11:19:54;13.32;;;9.90;;
76574;SDS011;65439;50.948;6.988;2023-08-17T11:22:19;12.35;;;9.75;;
76574;SDS011;65439;50.948;6.988;2023-08-17T11:24:45;17.27;;;10.97;;
76574;SDS011;65439;50.948;6.988;2023-08-17T11:27:10;11.95;;;9.90;;
76574;SDS011;65439;50.948;6.988;2023-08-17T11:32:02;12.77;;;9.60;;
76574;SDS011;65439;50.948;6.988;2023-08-17T11:34:29;11.93;;;9.45;;
76574;SDS011;65439;50.948;6.988;2023-08-17T11:36:56;14.75;;;9.63;;
76574;SDS011;65439;50.948;6.988;2023-08-17T11:39:22;15.18;;;9.55;;
76574;SDS011;65439;50.948;6.988;2023-08-17T11:41:48;13.30;;;9.93;;
76574;SDS011;65439;50.948;6.988;2023-08-17T11:46:39;10.07;;;7.95;;
76574;SDS011;65439;50.948;6.988;2023-08-17T11:49:06;11.27;;;8.35;;
76574;SDS011;65439;50.948;6.988;2023-08-17T11:51:31;14.88;;;9.95;;
76574;SDS011;65439;50.948;6.988;2023-08-17T11:54:00;12.73;;;8.35;;
76574;SDS011;65439;50.948;6.988;2023-08-17T11:56:25;13.55;;;8.75;;
76574;SDS011;65439;50.948;6.988;2023-08-17T11:58:51;10.75;;;8.27;;
76574;SDS011;65439;50.948;6.988;2023-08-17T12:01:16;9.93;;;7.60;;
76574;SDS011;65439;50.948;6.988;2023-08-17T12:03:41;12.57;;;9.77;;
76574;SDS011;65439;50.948;6.988;2023-08-17T12:06:07;10.65;;;9.05;;
76574;SDS011;65439;50.948;6.988;2023-08-17T12:08:33;12.57;;;9.05;;
76574;SDS011;65439;50.948;6.988;2023-08-17T12:10:59;10.60;;;8.60;;
76574;SDS011;65439;50.948;6.988;2023-08-17T12:13:33;9.93;;;8.82;;
76574;SDS011;65439;50.948;6.988;2023-08-17T12:15:59;10.25;;;8.43;;
76574;SDS011;65439;50.948;6.988;2023-08-17T12:18:25;14.68;;;9.40;;
76574;SDS011;65439;50.948;6.988;2023-08-17T12:20:53;13.18;;;8.68;;
76574;SDS011;65439;50.948;6.988;2023-08-17T12:23:19;10.75;;;8.25;;
76574;SDS011;65439;50.948;6.988;2023-08-17T12:25:44;11.45;;;9.20;;
76574;SDS011;65439;50.948;6.988;2023-08-17T12:28:13;16.30;;;10.38;;
76574;SDS011;65439;50.948;6.988;2023-08-17T12:30:38;13.68;;;8.52;;
76574;SDS011;65439;50.948;6.988;2023-08-17T12:33:04;9.80;;;8.30;;
76574;SDS011;65439;50.948;6.988;2023-08-17T12:35:30;11.57;;;7.82;;
76574;SDS011;65439;50.948;6.988;2023-08-17T12:37:56;10.88;;;8.45;;
76574;SDS011;65439;50.948;6.988;2023-08-17T12:40:22;11.77;;;8.68;;
76574;SDS011;65439;50.948;6.988;2023-08-17T12:42:47;13.05;;;9.05;;
76574;SDS011;65439;50.948;6.988;2023-08-17T12:45:13;11.95;;;8.55;;
76574;SDS011;65439;50.948;6.988;2023-08-17T12:47:39;11.23;;;8.02;;
76574;SDS011;65439;50.948;6.988;2023-08-17T12:50:04;11.25;;;8.75;;
76574;SDS011;65439;50.948;6.988;2023-08-17T12:52:30;11.00;;;8.50;;
76574;SDS011;65439;50.948;6.988;2023-08-17T12:54:56;10.68;;;8.05;;
76574;SDS011;65439;50.948;6.988;2023-08-17T12:57:21;9.68;;;7.55;;
76574;SDS011;65439;50.948;6.988;2023-08-17T12:59:47;12.70;;;9.27;;
76574;SDS011;65439;50.948;6.988;2023-08-17T13:02:12;10.60;;;8.35;;
76574;SDS011;65439;50.948;6.988;2023-08-17T13:04:37;12.23;;;8.60;;
76574;SDS011;65439;50.948;6.988;2023-08-17T13:07:03;13.00;;;8.37;;
76574;SDS011;65439;50.948;6.988;2023-08-17T13:09:28;13.90;;;8.73;;
76574;SDS011;65439;50.948;6.988;2023-08-17T13:11:54;10.40;;;8.00;;
76574;SDS011;65439;50.948;6.988;2023-08-17T13:14:19;9.75;;;7.70;;
76574;SDS011;65439;50.948;6.988;2023-08-17T13:19:09;11.00;;;8.43;;
76574;SDS011;65439;50.948;6.988;2023-08-17T13:21:35;11.07;;;8.33;;
76574;SDS011;65439;50.948;6.988;2023-08-17T13:26:28;11.50;;;9.00;;
76574;SDS011;65439;50.948;6.988;2023-08-17T13:28:53;13.00;;;8.87;;
76574;SDS011;65439;50.948;6.988;2023-08-17T13:31:18;12.00;;;9.37;;
76574;SDS011;65439;50.948;6.988;2023-08-17T13:36:09;12.47;;;9.80;;
76574;SDS011;65439;50.948;6.988;2023-08-17T13:38:34;15.47;;;9.40;;
76574;SDS011;65439;50.948;6.988;2023-08-17T13:40:59;10.87;;;8.80;;
76574;SDS011;65439;50.948;6.988;2023-08-17T13:43:25;12.37;;;8.53;;
76574;SDS011;65439;50.948;6.988;2023-08-17T13:48:15;10.00;;;8.43;;
76574;SDS011;65439;50.948;6.988;2023-08-17T13:50:40;11.45;;;9.15;;
76574;SDS011;65439;50.948;6.988;2023-08-17T13:55:50;14.18;;;9.20;;
76574;SDS011;65439;50.948;6.988;2023-08-17T13:58:15;15.00;;;10.38;;
76574;SDS011;65439;50.948;6.988;2023-08-17T14:03:06;13.55;;;9.93;;
76574;SDS011;65439;50.948;6.988;2023-08-17T14:07:56;11.37;;;9.17;;
76574;SDS011;65439;50.948;6.988;2023-08-17T14:12:47;10.60;;;8.23;;
76574;SDS011;65439;50.948;6.988;2023-08-17T14:17:38;17.63;;;10.65;;
76574;SDS011;65439;50.948;6.988;2023-08-17T14:22:29;9.93;;;8.25;;
76574;SDS011;65439;50.948;6.988;2023-08-17T14:27:20;12.37;;;8.83;;
76574;SDS011;65439;50.948;6.988;2023-08-17T14:32:10;12.15;;;10.32;;
76574;SDS011;65439;50.948;6.988;2023-08-17T14:37:01;11.03;;;8.37;;
76574;SDS011;65439;50.948;6.988;2023-08-17T14:41:52;9.77;;;8.20;;
76574;SDS011;65439;50.948;6.988;2023-08-17T14:44:17;9.23;;;7.47;;
76574;SDS011;65439;50.948;6.988;2023-08-17T14:49:08;9.37;;;6.97;;
76574;SDS011;65439;50.948;6.988;2023-08-17T14:54:02;9.98;;;7.72;;
76574;SDS011;65439;50.948;6.988;2023-08-17T14:58:53;8.53;;;7.50;;
76574;SDS011;65439;50.948;6.988;2023-08-17T15:03:43;7.43;;;6.10;;
76574;SDS011;65439;50.948;6.988;2023-08-17T15:08:34;9.17;;;8.03;;
76574;SDS011;65439;50.948;6.988;2023-08-17T15:13:27;8.52;;;7.63;;
76574;SDS011;65439;50.948;6.988;2023-08-17T15:18:17;9.67;;;6.83;;
76574;SDS011;65439;50.948;6.988;2023-08-17T15:23:08;9.40;;;6.60;;
76574;SDS011;65439;50.948;6.988;2023-08-17T15:27:58;10.60;;;6.90;;
76574;SDS011;65439;50.948;6.988;2023-08-17T15:32:49;7.43;;;5.93;;
76574;SDS011;65439;50.948;6.988;2023-08-17T15:37:40;7.80;;;7.00;;
76574;SDS011;65439;50.948;6.988;2023-08-17T15:42:31;6.82;;;6.13;;
76574;SDS011;65439;50.948;6.988;2023-08-17T15:47:22;7.00;;;6.23;;
76574;SDS011;65439;50.948;6.988;2023-08-17T15:52:13;7.27;;;6.00;;
76574;SDS011;65439;50.948;6.988;2023-08-17T15:54:39;6.60;;;5.90;;
76574;SDS011;65439;50.948;6.988;2023-08-17T15:57:04;8.25;;;5.43;;
76574;SDS011;65439;50.948;6.988;2023-08-17T16:01:55;6.20;;;5.60;;